Time;durP1;ratioP1;P1;durP2;ratioP2;P2;SDS_P1;SDS_P2;PMS_P1;PMS_P2;Temp;Humidity;BMP_temperature;BMP_pressure;BME280_temperature;BME280_humidity;BME280_pressure;Samples;Min_cycle;Max_cycle;Signal;HPM_P1;HPM_P2
2021/09/01 00:00:10;;;;;;;14.43;11.03;;;18.10;96.50;;;;;;4937668;29;20429;-65
2021/09/01 00:02:38;;;;;;;12.53;8.97;;;18.30;96.30;;;;;;4946905;28;20457;-70
2021/09/01 00:05:07;;;;;;;13.10;10.10;;;18.40;95.40;;;;;;4951835;29;20871;-60
2021/09/01 00:07:34;;;;;;;12.20;9.33;;;18.50;95.20;;;;;;4954329;28;20432;-60
2021/09/01 00:10:03;;;;;;;22.60;20.50;;;18.60;95.10;;;;;;4946306;28;20439;-63
2021/09/01 00:12:31;;;;;;;15.27;12.63;;;18.60;94.50;;;;;;4943103;28;20432;-60
2021/09/01 00:14:58;;;;;;;12.87;10.30;;;18.70;94.60;;;;;;4953250;28;20516;-60
2021/09/01 00:17:25;;;;;;;11.90;8.57;;;19.00;94.50;;;;;;4954984;29;20865;-60
2021/09/01 00:19:53;;;;;;;15.57;11.37;;;19.10;94.00;;;;;;4955378;28;20590;-61
2021/09/01 00:22:20;;;;;;;11.60;8.07;;;19.10;93.50;;;;;;4955625;28;20445;-59
2021/09/01 00:24:47;;;;;;;13.03;9.83;;;19.20;93.90;;;;;;4954451;28;20571;-70
2021/09/01 00:27:15;;;;;;;13.77;11.50;;;19.30;93.50;;;;;;4951416;28;20512;-70
2021/09/01 00:29:42;;;;;;;14.17;11.23;;;19.40;93.20;;;;;;4953907;28;20916;-72
2021/09/01 00:32:09;;;;;;;13.00;10.00;;;19.60;93.30;;;;;;4950579;28;20986;-72
2021/09/01 00:34:37;;;;;;;12.27;8.60;;;19.80;92.80;;;;;;4949353;28;20494;-72
2021/09/01 00:37:05;;;;;;;11.40;7.43;;;19.80;92.10;;;;;;4948475;28;20440;-71
2021/09/01 00:39:33;;;;;;;10.50;7.33;;;19.90;92.40;;;;;;4945577;28;20809;-72
2021/09/01 00:42:08;;;;;;;9.90;7.60;;;19.90;92.20;;;;;;4948954;28;20493;-70
2021/09/01 00:44:40;;;;;;;11.07;9.73;;;20.10;92.00;;;;;;4935852;28;20830;-64
2021/09/01 00:47:07;;;;;;;16.33;9.33;;;20.20;91.60;;;;;;4949486;28;20463;-68
2021/09/01 00:49:35;;;;;;;9.57;7.40;;;20.20;91.10;;;;;;4946547;28;20427;-72
2021/09/01 00:52:03;;;;;;;9.27;7.23;;;20.40;91.30;;;;;;4951469;28;20267;-72
2021/09/01 00:54:31;;;;;;;12.70;11.30;;;20.40;91.10;;;;;;4953658;28;20183;-70
2021/09/01 00:57:04;;;;;;;11.47;9.30;;;20.50;90.70;;;;;;4953009;28;20478;-72
2021/09/01 00:59:34;;;;;;;9.83;8.17;;;20.80;90.80;;;;;;4954166;28;20996;-72
2021/09/01 01:02:02;;;;;;;12.17;9.40;;;21.00;90.50;;;;;;4953123;28;20192;-61
2021/09/01 01:04:30;;;;;;;26.97;14.37;;;21.10;89.30;;;;;;4954360;28;20220;-62
2021/09/01 01:07:02;;;;;;;321.73;116.57;;;21.20;89.40;;;;;;4953739;28;20469;-65
2021/09/01 01:09:32;;;;;;;9.37;7.30;;;21.40;87.80;;;;;;4939189;28;20468;-64
2021/09/01 01:12:20;;;;;;;11.03;9.30;;;21.60;87.50;;;;;;4954336;28;20193;-61
2021/09/01 01:14:51;;;;;;;28.13;13.33;;;21.70;87.20;;;;;;4952402;28;20195;-64
2021/09/01 01:17:20;;;;;;;40.13;15.77;;;21.90;87.40;;;;;;4943002;28;20222;-62
2021/09/01 01:19:50;;;;;;;578.13;204.20;;;22.00;85.60;;;;;;4939747;28;20441;-64
2021/09/01 01:22:23;;;;;;;10.40;7.47;;;22.10;84.60;;;;;;4947164;28;20428;-64
2021/09/01 01:24:58;;;;;;;11.93;9.63;;;22.30;83.20;;;;;;4952098;28;20246;-61
2021/09/01 01:27:30;;;;;;;18.70;14.37;;;22.50;83.10;;;;;;4949793;28;20197;-60
2021/09/01 01:30:04;;;;;;;12.37;7.83;;;22.70;80.60;;;;;;4943063;28;20592;-67
2021/09/01 01:32:31;;;;;;;30.90;14.70;;;22.80;80.60;;;;;;4942580;28;20191;-61
2021/09/01 01:34:58;;;;;;;563.80;204.80;;;22.90;80.30;;;;;;4943155;28;20180;-71
2021/09/01 01:37:26;;;;;;;561.33;210.33;;;23.00;79.60;;;;;;4947383;28;20524;-63
2021/09/01 01:39:53;;;;;;;13.67;9.13;;;23.20;78.50;;;;;;4945096;28;20437;-66
2021/09/01 01:42:20;;;;;;;578.37;214.17;;;23.30;79.30;;;;;;4946697;28;20562;-69
2021/09/01 01:44:47;;;;;;;9.40;7.20;;;23.30;78.80;;;;;;4952610;28;20517;-62
2021/09/01 01:47:16;;;;;;;554.63;200.33;;;23.50;78.00;;;;;;4950377;28;20187;-64
2021/09/01 01:49:43;;;;;;;540.47;202.80;;;23.70;77.00;;;;;;4954354;28;20422;-61
2021/09/01 01:52:11;;;;;;;551.63;216.97;;;23.90;76.30;;;;;;4949278;28;20513;-65
2021/09/01 01:54:38;;;;;;;547.97;212.63;;;24.00;74.10;;;;;;4953323;28;20425;-63
2021/09/01 01:57:05;;;;;;;567.40;211.43;;;24.20;73.40;;;;;;4953346;28;20440;-70
2021/09/01 01:59:33;;;;;;;579.80;217.50;;;24.20;73.70;;;;;;4940429;28;20438;-61
2021/09/01 02:02:00;;;;;;;394.93;142.40;;;24.40;74.10;;;;;;4945311;28;20437;-64
2021/09/01 02:04:27;;;;;;;202.77;74.77;;;24.30;73.40;;;;;;4952524;28;20269;-61
2021/09/01 02:06:55;;;;;;;595.30;224.13;;;24.70;72.00;;;;;;4943198;29;20194;-75
2021/09/01 02:09:22;;;;;;;200.30;74.17;;;24.90;70.40;;;;;;4952093;28;20322;-64
2021/09/01 02:11:49;;;;;;;569.07;227.53;;;25.30;69.30;;;;;;4939990;28;20176;-62
2021/09/01 02:14:17;;;;;;;424.37;167.93;;;25.00;68.90;;;;;;4935086;28;20204;-68
2021/09/01 02:16:47;;;;;;;605.10;242.77;;;25.10;69.10;;;;;;4948824;28;20184;-63
2021/09/01 02:19:14;;;;;;;421.87;161.60;;;25.30;68.70;;;;;;4948549;28;20183;-68
2021/09/01 02:21:42;;;;;;;612.30;239.40;;;25.60;68.70;;;;;;4953482;28;20191;-68
2021/09/01 02:24:09;;;;;;;444.30;167.07;;;26.00;65.60;;;;;;4951361;28;20207;-64
2021/09/01 02:26:37;;;;;;;661.63;248.33;;;26.40;65.50;;;;;;4949127;28;20638;-65
2021/09/01 02:29:04;;;;;;;609.93;234.60;;;27.00;64.10;;;;;;4946714;28;20179;-67
2021/09/01 02:31:31;;;;;;;631.40;242.23;;;27.00;62.80;;;;;;4950208;28;20584;-71
2021/09/01 02:33:59;;;;;;;640.93;250.10;;;27.30;61.90;;;;;;4949035;28;20606;-68
2021/09/01 02:36:26;;;;;;;365.00;138.20;;;27.20;61.70;;;;;;4958092;28;20247;-67
2021/09/01 02:38:53;;;;;;;621.93;251.57;;;26.70;61.20;;;;;;4949121;28;20192;-62
2021/09/01 02:41:23;;;;;;;619.17;253.07;;;26.00;61.20;;;;;;4954434;28;20187;-69
2021/09/01 02:43:53;;;;;;;586.53;229.50;;;26.20;62.00;;;;;;4948730;28;20223;-67
2021/09/01 02:46:21;;;;;;;637.43;249.77;;;27.00;60.90;;;;;;4954172;28;20206;-72
2021/09/01 02:48:51;;;;;;;620.20;261.67;;;27.40;60.30;;;;;;4948440;28;20203;-62
2021/09/01 02:51:18;;;;;;;611.53;251.57;;;27.80;59.90;;;;;;4939539;28;20614;-66
2021/09/01 02:53:46;;;;;;;656.37;260.30;;;28.00;59.10;;;;;;4952869;28;20658;-67
2021/09/01 02:56:13;;;;;;;656.90;263.90;;;27.90;58.20;;;;;;4952465;28;20196;-62
2021/09/01 02:58:41;;;;;;;700.67;290.70;;;27.70;58.60;;;;;;4950772;28;20909;-72
2021/09/01 03:01:08;;;;;;;713.00;355.87;;;27.90;58.20;;;;;;4955913;28;20178;-61
2021/09/01 03:03:35;;;;;;;999.07;475.83;;;28.20;56.50;;;;;;4945201;28;20192;-64
2021/09/01 03:06:03;;;;;;;740.10;399.47;;;28.00;57.20;;;;;;4951566;28;20223;-58
2021/09/01 03:08:30;;;;;;;686.33;328.53;;;28.30;57.10;;;;;;4942017;28;20211;-63
2021/09/01 03:10:57;;;;;;;698.67;291.83;;;28.50;55.90;;;;;;4949667;28;20191;-61
2021/09/01 03:13:25;;;;;;;700.00;285.80;;;27.60;55.30;;;;;;4951222;28;20204;-61
2021/09/01 03:15:52;;;;;;;962.37;429.27;;;27.10;55.70;;;;;;4957271;28;20200;-62
2021/09/01 03:18:20;;;;;;;706.00;332.93;;;27.60;56.60;;;;;;4950994;28;20202;-60
2021/09/01 03:20:47;;;;;;;1024.60;602.30;;;28.40;56.60;;;;;;4948559;29;20199;-61
2021/09/01 03:23:15;;;;;;;739.97;428.97;;;28.80;55.70;;;;;;4944872;28;20183;-60
2021/09/01 03:25:42;;;;;;;1080.87;704.93;;;29.30;55.80;;;;;;4945097;28;20215;-61
2021/09/01 03:28:09;;;;;;;1204.80;901.03;;;29.10;55.80;;;;;;4951254;28;20597;-61
2021/09/01 03:30:37;;;;;;;1214.60;910.03;;;28.80;55.30;;;;;;4948656;28;20200;-64
2021/09/01 03:33:04;;;;;;;577.67;264.57;;;28.70;56.30;;;;;;4952432;28;20198;-60
2021/09/01 03:35:32;;;;;;;554.00;258.00;;;28.60;57.00;;;;;;4949956;28;20247;-59
2021/09/01 03:37:59;;;;;;;603.73;271.60;;;29.40;57.20;;;;;;4944557;28;20562;-61
2021/09/01 03:40:27;;;;;;;481.20;227.77;;;29.60;56.20;;;;;;4952521;28;20594;-61
2021/09/01 03:42:54;;;;;;;799.90;388.90;;;29.40;57.00;;;;;;4954346;28;20234;-59
2021/09/01 03:45:21;;;;;;;564.93;266.27;;;29.50;56.30;;;;;;4948249;28;20227;-62
2021/09/01 03:47:48;;;;;;;493.90;226.97;;;28.70;57.80;;;;;;4955136;29;20183;-59
2021/09/01 03:50:16;;;;;;;480.73;225.07;;;28.90;58.60;;;;;;4946894;28;20720;-60
2021/09/01 03:52:43;;;;;;;314.80;144.83;;;28.90;59.00;;;;;;4951076;28;20283;-58
2021/09/01 03:55:11;;;;;;;511.30;242.77;;;29.60;58.70;;;;;;4951887;28;20227;-62
2021/09/01 03:57:39;;;;;;;492.33;234.87;;;29.70;58.10;;;;;;4950118;28;20191;-67
2021/09/01 04:00:08;;;;;;;509.90;241.33;;;29.60;58.00;;;;;;4952016;28;20242;-67
2021/09/01 04:02:36;;;;;;;310.30;141.87;;;29.70;58.00;;;;;;4941338;29;20611;-72
2021/09/01 04:05:03;;;;;;;504.47;241.73;;;29.30;56.90;;;;;;4953098;28;20302;-65
2021/09/01 04:07:31;;;;;;;563.07;260.07;;;28.80;57.70;;;;;;4948305;28;20710;-71
2021/09/01 04:09:58;;;;;;;733.27;363.83;;;29.10;57.20;;;;;;4927380;29;20223;-59
2021/09/01 04:12:26;;;;;;;574.37;257.30;;;29.30;56.80;;;;;;4948043;28;20646;-69
2021/09/01 04:14:53;;;;;;;831.37;400.43;;;29.40;56.60;;;;;;4942182;29;20237;-60
2021/09/01 04:17:20;;;;;;;614.33;266.47;;;29.20;56.10;;;;;;4949760;28;20195;-70
2021/09/01 04:19:48;;;;;;;631.20;264.10;;;28.60;56.80;;;;;;4947205;28;20195;-61
2021/09/01 04:22:15;;;;;;;640.47;268.47;;;29.30;55.10;;;;;;4943129;28;20274;-60
2021/09/01 04:24:42;;;;;;;650.87;272.70;;;29.10;55.90;;;;;;4952997;28;20207;-66
2021/09/01 04:27:10;;;;;;;661.47;268.67;;;29.10;56.20;;;;;;4938564;28;20226;-62
2021/09/01 04:29:37;;;;;;;659.57;275.73;;;28.90;55.00;;;;;;4951572;28;20274;-62
2021/09/01 04:32:05;;;;;;;659.33;280.87;;;29.20;55.40;;;;;;4950671;28;20622;-63
2021/09/01 04:34:32;;;;;;;944.33;411.63;;;29.40;55.20;;;;;;4936859;29;20206;-67
2021/09/01 04:36:59;;;;;;;625.40;276.63;;;28.80;56.60;;;;;;4950039;28;20222;-62
2021/09/01 04:39:27;;;;;;;836.97;408.90;;;28.50;58.50;;;;;;4953826;28;20215;-72
2021/09/01 04:41:54;;;;;;;588.23;277.03;;;29.10;58.00;;;;;;4954985;28;20622;-64
2021/09/01 04:44:21;;;;;;;350.73;158.57;;;29.20;58.80;;;;;;4954513;28;20222;-61
2021/09/01 04:46:49;;;;;;;533.40;253.90;;;29.20;57.50;;;;;;4950726;28;20542;-60
2021/09/01 04:49:16;;;;;;;636.13;282.90;;;29.50;56.60;;;;;;4955125;28;20182;-61
2021/09/01 04:51:44;;;;;;;683.93;292.30;;;29.20;57.40;;;;;;4954146;28;20199;-61
2021/09/01 04:54:11;;;;;;;1019.93;508.00;;;29.50;57.50;;;;;;4951332;28;20238;-61
2021/09/01 04:56:39;;;;;;;983.47;439.77;;;28.70;58.50;;;;;;4949320;28;20175;-61
2021/09/01 04:59:06;;;;;;;655.63;272.47;;;27.80;61.30;;;;;;4953881;28;20194;-70
2021/09/01 05:01:33;;;;;;;977.60;419.03;;;27.20;62.00;;;;;;4940564;29;20269;-72
2021/09/01 05:04:00;;;;;;;968.20;408.03;;;27.40;63.10;;;;;;4943210;28;20183;-68
2021/09/01 05:06:28;;;;;;;915.63;406.33;;;27.60;61.30;;;;;;4935824;29;20266;-60
2021/09/01 05:08:55;;;;;;;527.00;239.37;;;27.10;62.00;;;;;;4940129;28;20191;-62
2021/09/01 05:11:26;;;;;;;546.00;249.17;;;27.30;62.90;;;;;;4950733;28;20202;-67
2021/09/01 05:13:53;;;;;;;570.43;264.20;;;27.50;60.70;;;;;;4950780;28;20195;-61
2021/09/01 05:16:20;;;;;;;641.53;279.50;;;28.10;59.70;;;;;;4954735;28;20697;-60
2021/09/01 05:18:48;;;;;;;654.63;281.53;;;28.10;60.00;;;;;;4954468;28;20777;-60
2021/09/01 05:21:17;;;;;;;949.50;418.43;;;28.00;61.10;;;;;;4954699;28;20183;-60
2021/09/01 05:23:47;;;;;;;692.57;288.50;;;28.40;61.60;;;;;;4949188;28;20184;-60
2021/09/01 05:26:18;;;;;;;659.47;274.40;;;28.40;61.60;;;;;;4944686;28;20207;-63
2021/09/01 05:28:48;;;;;;;649.07;273.60;;;28.40;61.80;;;;;;4953800;28;20179;-60
2021/09/01 05:31:17;;;;;;;668.33;293.40;;;27.70;60.10;;;;;;4939592;28;20187;-68
2021/09/01 05:33:50;;;;;;;885.83;422.53;;;28.00;60.60;;;;;;4949727;29;20315;-60
2021/09/01 05:36:18;;;;;;;605.20;278.70;;;27.50;64.10;;;;;;4949216;28;20194;-66
2021/09/01 05:38:49;;;;;;;661.50;296.43;;;27.60;63.40;;;;;;4943199;29;20186;-63
2021/09/01 05:41:17;;;;;;;967.33;427.00;;;27.40;64.10;;;;;;4949447;28;20653;-70
2021/09/01 05:43:46;;;;;;;985.67;433.17;;;27.80;63.70;;;;;;4944897;28;20232;-60
2021/09/01 05:46:15;;;;;;;955.97;427.03;;;27.50;62.50;;;;;;4954419;28;20217;-65
2021/09/01 05:48:43;;;;;;;937.90;437.83;;;27.10;63.30;;;;;;4953023;28;20183;-63
2021/09/01 05:51:11;;;;;;;931.93;435.63;;;27.60;62.10;;;;;;4951483;28;20194;-61
2021/09/01 05:53:38;;;;;;;653.27;290.47;;;27.30;59.80;;;;;;4950221;28;20237;-61
2021/09/01 05:56:10;;;;;;;613.00;290.67;;;26.90;59.90;;;;;;4952322;29;20183;-65
2021/09/01 05:58:41;;;;;;;611.77;278.53;;;26.70;60.30;;;;;;4947515;28;20198;-61
2021/09/01 06:01:12;;;;;;;629.83;283.03;;;26.50;60.40;;;;;;4946088;28;20578;-64
2021/09/01 06:03:44;;;;;;;621.10;281.63;;;26.50;60.40;;;;;;4949317;28;20258;-62
2021/09/01 06:06:18;;;;;;;608.10;274.40;;;26.50;59.40;;;;;;4944453;28;20567;-72
2021/09/01 06:08:47;;;;;;;396.07;178.93;;;26.70;60.30;;;;;;4945920;28;20672;-63
2021/09/01 06:11:16;;;;;;;344.70;148.77;;;26.90;60.60;;;;;;4930828;29;20654;-66
2021/09/01 06:13:44;;;;;;;583.87;266.00;;;27.10;59.80;;;;;;4946608;28;20226;-61
2021/09/01 06:16:11;;;;;;;550.27;250.90;;;27.40;59.60;;;;;;4954352;28;20207;-68
2021/09/01 06:18:38;;;;;;;363.07;162.87;;;27.60;58.80;;;;;;4951148;28;20191;-68
2021/09/01 06:21:06;;;;;;;576.30;273.07;;;27.20;58.60;;;;;;4949736;28;20222;-60
2021/09/01 06:23:36;;;;;;;324.63;142.27;;;26.50;58.60;;;;;;4952982;28;20191;-62
2021/09/01 06:26:04;;;;;;;521.33;243.40;;;26.70;58.70;;;;;;4949976;28;20233;-60
2021/09/01 06:28:31;;;;;;;566.27;267.40;;;26.70;58.40;;;;;;4950542;28;20187;-71
2021/09/01 06:30:58;;;;;;;540.80;247.20;;;26.50;58.20;;;;;;4945058;28;20191;-71
2021/09/01 06:33:26;;;;;;;570.27;256.57;;;26.60;58.90;;;;;;4948134;28;20191;-67
2021/09/01 06:35:53;;;;;;;555.73;250.47;;;26.10;59.30;;;;;;4950106;28;20202;-68
2021/09/01 06:38:20;;;;;;;529.87;231.13;;;26.20;59.70;;;;;;4949033;28;20199;-73
2021/09/01 06:40:48;;;;;;;331.73;142.27;;;25.90;59.00;;;;;;4944451;28;20203;-71
2021/09/01 06:43:15;;;;;;;362.77;154.77;;;26.10;60.00;;;;;;4948785;28;20234;-71
2021/09/01 06:45:44;;;;;;;478.50;203.77;;;25.90;59.50;;;;;;4948528;28;20230;-71
2021/09/01 06:48:11;;;;;;;327.23;137.13;;;25.50;60.00;;;;;;4949998;28;20175;-67
2021/09/01 06:50:39;;;;;;;15.77;9.67;;;24.90;61.10;;;;;;4948833;28;20648;-66
2021/09/01 06:53:07;;;;;;;14.03;6.67;;;24.90;62.00;;;;;;4949257;28;20680;-69
2021/09/01 06:55:35;;;;;;;14.63;7.47;;;24.30;63.60;;;;;;4950974;28;20221;-66
2021/09/01 06:58:02;;;;;;;14.00;6.67;;;23.80;64.60;;;;;;4948143;28;20269;-65
2021/09/01 07:00:29;;;;;;;11.33;10.07;;;23.60;65.10;;;;;;4953364;28;20255;-68
2021/09/01 07:02:57;;;;;;;6.23;5.40;;;23.00;66.60;;;;;;4949366;28;20187;-69
2021/09/01 07:05:24;;;;;;;7.33;6.73;;;22.80;67.10;;;;;;4946266;28;20219;-64
2021/09/01 07:07:51;;;;;;;8.53;7.87;;;22.60;68.10;;;;;;4945836;28;20187;-69
2021/09/01 07:10:19;;;;;;;9.33;8.63;;;22.30;69.10;;;;;;4948223;28;20195;-63
2021/09/01 07:12:46;;;;;;;8.97;8.13;;;22.10;69.90;;;;;;4945373;28;20233;-68
2021/09/01 07:15:13;;;;;;;8.43;7.57;;;21.90;71.10;;;;;;4949482;28;20312;-62
2021/09/01 07:17:42;;;;;;;10.70;8.37;;;21.80;72.00;;;;;;4944509;28;20275;-61
2021/09/01 07:20:10;;;;;;;9.97;7.40;;;21.70;73.10;;;;;;4951371;28;20270;-62
2021/09/01 07:22:38;;;;;;;10.43;8.70;;;21.70;73.70;;;;;;4945620;28;20647;-62
2021/09/01 07:25:07;;;;;;;10.30;8.27;;;21.40;75.10;;;;;;4951117;28;20639;-72
2021/09/01 07:27:35;;;;;;;10.33;7.73;;;21.20;76.50;;;;;;4945234;28;20188;-71
2021/09/01 07:30:03;;;;;;;11.60;6.30;;;21.10;77.80;;;;;;4956264;28;20590;-61
2021/09/01 07:32:30;;;;;;;12.63;8.63;;;21.00;79.20;;;;;;4958742;28;20583;-59
2021/09/01 07:34:57;;;;;;;12.50;8.23;;;20.70;80.50;;;;;;4957517;28;20253;-59
2021/09/01 07:37:25;;;;;;;11.57;7.50;;;20.80;81.30;;;;;;4957413;28;20603;-64
2021/09/01 07:39:52;;;;;;;11.20;7.07;;;20.70;82.70;;;;;;4955311;28;20191;-69
2021/09/01 07:42:20;;;;;;;11.00;7.43;;;20.50;84.00;;;;;;4944784;28;20297;-63
2021/09/01 07:44:47;;;;;;;11.13;7.70;;;20.50;84.80;;;;;;4960555;28;20226;-68
2021/09/01 07:47:15;;;;;;;10.60;7.53;;;20.40;86.30;;;;;;4959786;28;20440;-67
2021/09/01 07:49:42;;;;;;;11.73;9.23;;;20.30;87.20;;;;;;4964008;28;20422;-69
2021/09/01 07:52:10;;;;;;;10.70;8.17;;;20.40;88.10;;;;;;4949409;28;20215;-71
2021/09/01 07:54:37;;;;;;;10.37;8.37;;;20.30;88.40;;;;;;4955552;28;20515;-71
2021/09/01 07:57:04;;;;;;;10.57;7.73;;;20.20;89.40;;;;;;4948266;28;20438;-66
2021/09/01 07:59:32;;;;;;;10.67;8.40;;;20.20;90.10;;;;;;4959937;28;20197;-70
2021/09/01 08:01:59;;;;;;;9.00;5.73;;;20.00;90.40;;;;;;4970068;28;20199;-72
2021/09/01 08:04:26;;;;;;;9.90;7.03;;;20.00;91.10;;;;;;4960549;28;20258;-61
2021/09/01 08:06:54;;;;;;;8.43;4.83;;;19.90;91.60;;;;;;4957086;28;20274;-72
2021/09/01 08:09:21;;;;;;;10.00;8.03;;;19.80;92.20;;;;;;4958465;28;20214;-73
2021/09/01 08:11:49;;;;;;;9.73;7.10;;;19.70;92.80;;;;;;4957544;28;20923;-69
2021/09/01 08:14:16;;;;;;;10.37;7.33;;;19.60;94.00;;;;;;4945222;28;20451;-72
2021/09/01 08:16:44;;;;;;;10.03;8.00;;;19.60;94.50;;;;;;4959378;28;20443;-72
2021/09/01 08:19:11;;;;;;;9.57;6.17;;;19.50;95.40;;;;;;4958372;28;20470;-73
2021/09/01 08:21:39;;;;;;;9.70;7.03;;;19.50;96.20;;;;;;4949832;28;20187;-69
2021/09/01 08:24:06;;;;;;;9.47;6.90;;;19.30;97.00;;;;;;4961184;28;21716;-70
2021/09/01 08:26:34;;;;;;;10.97;8.33;;;19.30;97.80;;;;;;4951748;28;20444;-72
2021/09/01 08:29:01;;;;;;;10.57;8.30;;;19.20;98.90;;;;;;4959819;28;21014;-69
2021/09/01 08:31:28;;;;;;;8.60;5.37;;;19.20;99.80;;;;;;4953118;28;20449;-69
2021/09/01 08:33:56;;;;;;;9.33;6.63;;;19.10;99.90;;;;;;4962413;28;20213;-72
2021/09/01 08:36:23;;;;;;;9.43;6.70;;;19.10;99.90;;;;;;4958365;28;20425;-71
2021/09/01 08:38:50;;;;;;;9.07;5.83;;;19.10;99.90;;;;;;4963123;28;20429;-63
2021/09/01 08:41:18;;;;;;;9.03;6.07;;;19.10;99.90;;;;;;4951139;28;20439;-70
2021/09/01 08:43:46;;;;;;;9.43;6.70;;;19.00;99.90;;;;;;4949007;28;20513;-70
2021/09/01 08:46:14;;;;;;;9.17;6.50;;;19.00;99.90;;;;;;4964818;28;20471;-72
2021/09/01 08:48:42;;;;;;;9.50;7.10;;;19.00;99.90;;;;;;4960886;28;20423;-69
2021/09/01 08:51:09;;;;;;;9.20;6.27;;;18.90;99.90;;;;;;4953756;28;20468;-72
2021/09/01 08:53:38;;;;;;;9.43;6.60;;;18.80;99.90;;;;;;4956277;28;20436;-72
2021/09/01 08:56:06;;;;;;;9.37;6.33;;;18.80;99.90;;;;;;4958071;28;20424;-72
2021/09/01 08:58:33;;;;;;;9.07;6.30;;;18.80;99.90;;;;;;4960146;28;20819;-72
2021/09/01 09:01:01;;;;;;;8.83;5.53;;;18.80;99.90;;;;;;4953124;28;20442;-72
2021/09/01 09:03:31;;;;;;;8.53;4.97;;;18.70;99.90;;;;;;4958754;28;20431;-72
2021/09/01 09:06:06;;;;;;;10.27;6.13;;;18.70;99.90;;;;;;4962259;28;21020;-71
2021/09/01 09:08:33;;;;;;;11.80;8.10;;;18.60;99.90;;;;;;4966965;28;20418;-72
2021/09/01 09:11:01;;;;;;;10.83;6.23;;;18.70;99.90;;;;;;4955053;28;20444;-72
2021/09/01 09:13:34;;;;;;;11.27;6.87;;;18.60;99.90;;;;;;4954792;28;20432;-70
2021/09/01 09:16:09;;;;;;;12.57;8.67;;;18.50;99.90;;;;;;4955490;28;20536;-72
2021/09/01 09:18:38;;;;;;;12.13;7.80;;;18.50;99.90;;;;;;4946972;28;20555;-66
2021/09/01 09:21:16;;;;;;;11.60;6.80;;;18.40;99.90;;;;;;4954055;28;20963;-66
2021/09/01 09:23:45;;;;;;;12.73;8.73;;;18.50;99.90;;;;;;4959307;28;20434;-59
2021/09/01 09:26:27;;;;;;;11.83;7.07;;;18.50;99.90;;;;;;4956374;28;20514;-64
2021/09/01 09:29:11;;;;;;;10.93;5.67;;;18.40;99.90;;;;;;4971269;28;20460;-59
2021/09/01 09:31:41;;;;;;;11.47;6.63;;;18.40;99.90;;;;;;4965916;28;21019;-59
2021/09/01 09:34:12;;;;;;;12.20;7.90;;;18.30;99.90;;;;;;4959032;28;20428;-59
2021/09/01 09:36:41;;;;;;;12.30;8.30;;;18.30;99.90;;;;;;4955431;28;20425;-60
2021/09/01 09:39:08;;;;;;;11.53;6.97;;;18.20;99.90;;;;;;4954292;28;20493;-61
2021/09/01 09:41:35;;;;;;;14.53;11.97;;;18.20;99.90;;;;;;4961606;28;20992;-60
2021/09/01 09:44:06;;;;;;;13.43;9.87;;;18.20;99.90;;;;;;4956244;28;22191;-60
2021/09/01 09:46:47;;;;;;;14.60;11.10;;;18.20;99.90;;;;;;4957615;28;20926;-59
2021/09/01 09:49:14;;;;;;;13.00;9.67;;;18.10;99.90;;;;;;4953816;28;20438;-60
2021/09/01 09:51:43;;;;;;;12.03;6.80;;;18.10;99.90;;;;;;4954234;28;20445;-67
2021/09/01 09:54:14;;;;;;;11.40;6.40;;;18.00;99.90;;;;;;4946550;28;20474;-60
2021/09/01 09:56:42;;;;;;;15.17;12.33;;;17.90;99.90;;;;;;4949308;28;20775;-61
2021/09/01 09:59:21;;;;;;;12.13;7.70;;;17.90;99.90;;;;;;4955310;28;20777;-59
2021/09/01 10:01:49;;;;;;;11.40;6.63;;;18.00;99.90;;;;;;4953893;28;20431;-59
2021/09/01 10:04:16;;;;;;;11.97;7.73;;;18.00;99.90;;;;;;4948574;28;20432;-61
2021/09/01 10:06:44;;;;;;;12.93;9.47;;;17.90;99.90;;;;;;4955958;28;20980;-63
2021/09/01 10:09:12;;;;;;;11.30;6.57;;;17.90;99.90;;;;;;4957398;28;20440;-74
2021/09/01 10:11:45;;;;;;;14.43;12.10;;;18.00;99.90;;;;;;4958048;28;20462;-67
2021/09/01 10:14:18;;;;;;;14.63;12.57;;;17.90;99.90;;;;;;4956440;28;20936;-70
2021/09/01 10:16:54;;;;;;;12.13;8.33;;;18.00;99.90;;;;;;4957096;28;20464;-60
2021/09/01 10:19:27;;;;;;;12.70;8.80;;;17.90;99.90;;;;;;4960967;28;20424;-68
2021/09/01 10:22:04;;;;;;;11.13;6.23;;;17.90;99.90;;;;;;4955029;28;20427;-66
2021/09/01 10:24:36;;;;;;;12.20;8.17;;;17.90;99.90;;;;;;4961144;28;20520;-60
2021/09/01 10:27:06;;;;;;;10.83;5.83;;;17.90;99.90;;;;;;4960484;28;20470;-69
2021/09/01 10:29:39;;;;;;;11.93;7.67;;;17.90;99.90;;;;;;4954312;28;20452;-59
2021/09/01 10:32:20;;;;;;;11.93;7.73;;;17.80;99.90;;;;;;4958643;28;20496;-58
2021/09/01 10:34:48;;;;;;;11.30;6.70;;;17.80;99.90;;;;;;4955916;28;20440;-61
2021/09/01 10:37:38;;;;;;;11.53;6.90;;;17.80;99.90;;;;;;4954835;28;20451;-61
2021/09/01 10:40:14;;;;;;;11.13;6.40;;;17.70;99.90;;;;;;4958057;28;20452;-61
2021/09/01 10:42:45;;;;;;;13.93;10.33;;;17.70;99.90;;;;;;4964836;28;20555;-60
2021/09/01 10:45:20;;;;;;;11.63;7.23;;;17.70;99.90;;;;;;4966208;28;20463;-62
2021/09/01 10:47:59;;;;;;;12.30;8.43;;;17.70;99.90;;;;;;4964702;28;20421;-63
2021/09/01 10:50:45;;;;;;;11.17;6.67;;;17.70;99.90;;;;;;4969361;28;20444;-60
2021/09/01 10:53:24;;;;;;;26.67;22.70;;;17.60;99.90;;;;;;4949087;28;20481;-68
2021/09/01 10:55:59;;;;;;;11.40;6.70;;;17.60;99.90;;;;;;4958176;28;20428;-59
2021/09/01 10:58:41;;;;;;;11.03;6.20;;;17.60;99.90;;;;;;4960951;28;20432;-64
2021/09/01 11:01:13;;;;;;;12.80;9.63;;;17.60;99.90;;;;;;4957855;28;20418;-60
2021/09/01 11:03:42;;;;;;;11.23;6.67;;;17.50;99.90;;;;;;4955049;28;20850;-61
2021/09/01 11:06:16;;;;;;;12.00;8.17;;;17.40;99.90;;;;;;4953656;28;20470;-64
2021/09/01 11:09:07;;;;;;;11.70;7.80;;;17.40;99.90;;;;;;4962618;28;20505;-68
2021/09/01 11:11:53;;;;;;;13.07;10.57;;;17.30;99.90;;;;;;4966615;28;20875;-67
2021/09/01 11:14:36;;;;;;;11.97;8.10;;;17.30;99.90;;;;;;4962266;28;20423;-72
2021/09/01 11:17:06;;;;;;;11.10;6.67;;;17.30;99.90;;;;;;4968330;28;20467;-65
2021/09/01 11:19:34;;;;;;;11.50;7.23;;;17.30;99.90;;;;;;4961356;28;20417;-59
2021/09/01 11:22:06;;;;;;;11.67;7.77;;;17.20;99.90;;;;;;4965172;28;20437;-73
2021/09/01 11:24:47;;;;;;;11.97;8.53;;;17.20;99.90;;;;;;4962985;28;21003;-71
2021/09/01 11:27:17;;;;;;;13.63;11.13;;;17.20;99.90;;;;;;4962879;28;20572;-71
2021/09/01 11:29:45;;;;;;;11.47;7.37;;;17.20;99.90;;;;;;4956846;28;20988;-60
2021/09/01 11:32:17;;;;;;;10.97;6.40;;;17.10;99.90;;;;;;4957283;28;20445;-61
2021/09/01 11:34:45;;;;;;;11.30;7.50;;;17.00;99.90;;;;;;4958277;28;20431;-62
2021/09/01 11:37:14;;;;;;;11.07;6.97;;;16.90;99.90;;;;;;4963316;28;20816;-72
2021/09/01 11:39:48;;;;;;;12.23;8.80;;;16.90;99.90;;;;;;4953096;28;20452;-60
2021/09/01 11:42:16;;;;;;;12.53;9.03;;;16.90;99.90;;;;;;4948390;28;20453;-60
2021/09/01 11:44:53;;;;;;;13.53;11.37;;;16.90;99.90;;;;;;4963278;28;20959;-62
2021/09/01 11:47:21;;;;;;;11.60;7.63;;;16.90;99.90;;;;;;4956130;28;20440;-62
2021/09/01 11:49:51;;;;;;;10.93;6.67;;;16.80;99.90;;;;;;4957878;28;20429;-67
2021/09/01 11:52:29;;;;;;;11.23;7.23;;;16.80;99.90;;;;;;4969165;28;20505;-65
2021/09/01 11:54:57;;;;;;;11.30;7.10;;;16.80;99.90;;;;;;4965867;28;20435;-63
2021/09/01 11:57:26;;;;;;;10.87;6.40;;;16.80;99.90;;;;;;4954482;28;21058;-62
2021/09/01 11:59:53;;;;;;;10.57;6.10;;;16.70;99.90;;;;;;4964040;28;20464;-65
2021/09/01 12:02:29;;;;;;;11.77;8.17;;;16.70;99.90;;;;;;4959785;28;20433;-61
2021/09/01 12:04:57;;;;;;;10.83;6.30;;;16.70;99.90;;;;;;4960330;28;20989;-71
2021/09/01 12:07:37;;;;;;;11.47;7.47;;;16.60;99.90;;;;;;4965999;28;20427;-60
2021/09/01 12:10:13;;;;;;;10.93;6.80;;;16.60;99.90;;;;;;4955360;28;20425;-64
2021/09/01 12:12:42;;;;;;;11.73;7.90;;;16.50;99.90;;;;;;4952050;28;20416;-64
2021/09/01 12:15:17;;;;;;;15.53;8.67;;;16.50;99.90;;;;;;4968363;28;20421;-64
2021/09/01 12:18:01;;;;;;;12.33;7.70;;;16.40;99.90;;;;;;4954892;28;20419;-70
2021/09/01 12:20:28;;;;;;;13.00;8.70;;;16.30;99.90;;;;;;4941052;28;20433;-61
2021/09/01 12:22:56;;;;;;;12.60;7.87;;;16.30;99.90;;;;;;4959227;28;20409;-59
2021/09/01 12:25:25;;;;;;;12.40;8.00;;;16.30;99.90;;;;;;4955730;28;20492;-60
2021/09/01 12:28:07;;;;;;;12.13;7.57;;;16.20;99.90;;;;;;4952513;28;20937;-71
2021/09/01 12:30:36;;;;;;;12.17;7.47;;;16.10;99.90;;;;;;4961853;28;20432;-72
2021/09/01 12:33:09;;;;;;;11.93;7.40;;;16.10;99.90;;;;;;4961596;28;20500;-71
2021/09/01 12:35:36;;;;;;;12.03;7.57;;;16.00;99.90;;;;;;4955732;28;20461;-61